createdAt,value
2022-11-23T00:00:34.009Z,5.35
2022-11-23T00:01:37.426Z,5.36
2022-11-23T00:02:38.998Z,5.32
2022-11-23T00:03:40.961Z,5.35
2022-11-23T00:04:42.552Z,5.30
2022-11-23T00:05:44.153Z,5.29
2022-11-23T00:06:45.777Z,5.29
2022-11-23T00:07:47.421Z,5.29
2022-11-23T00:08:49.971Z,5.30
2022-11-23T00:09:51.572Z,5.31
2022-11-23T00:10:53.092Z,5.32
2022-11-23T00:11:54.978Z,5.31
2022-11-23T00:12:56.611Z,5.29
2022-11-23T00:13:58.189Z,5.28
2022-11-23T00:14:59.771Z,5.23
2022-11-23T00:16:05.568Z,5.16
2022-11-23T00:17:07.163Z,5.13
2022-11-23T00:18:08.808Z,5.10
2022-11-23T00:19:10.418Z,5.06
2022-11-23T00:20:12.037Z,5.14
2022-11-23T00:21:16.897Z,5.20
2022-11-23T00:22:18.517Z,5.28
2022-11-23T00:23:20.046Z,5.39
2022-11-23T00:24:21.811Z,5.50
2022-11-23T00:25:23.458Z,5.59
2022-11-23T00:26:25.149Z,5.64
2022-11-23T00:27:26.700Z,5.63
2022-11-23T00:28:28.362Z,5.70
2022-11-23T00:29:30.174Z,5.71
2022-11-23T00:30:32.523Z,5.71
2022-11-23T00:31:34.151Z,5.70
2022-11-23T00:32:35.712Z,5.72
2022-11-23T00:33:37.884Z,5.73
2022-11-23T00:34:39.555Z,5.79
2022-11-23T00:35:41.150Z,5.83
2022-11-23T00:36:42.739Z,5.83
2022-11-23T00:37:44.328Z,5.85
2022-11-23T00:38:46.409Z,5.90
2022-11-23T00:39:48.027Z,5.91
2022-11-23T00:40:49.635Z,5.88
2022-11-23T00:41:51.237Z,5.87
2022-11-23T00:42:52.821Z,5.89
2022-11-23T00:43:54.659Z,5.91
2022-11-23T00:44:56.175Z,5.96
2022-11-23T00:46:03.658Z,6.00
2022-11-23T00:47:05.546Z,5.98
2022-11-23T00:48:07.122Z,5.93
2022-11-23T00:49:09.946Z,5.87
2022-11-23T00:50:11.500Z,5.81
2022-11-23T00:51:16.804Z,5.77
2022-11-23T00:52:18.427Z,5.74
2022-11-23T00:53:19.988Z,5.82
2022-11-23T00:54:21.562Z,5.79
2022-11-23T00:55:23.127Z,5.79
2022-11-23T00:56:25.166Z,5.71
2022-11-23T00:57:26.728Z,5.66
2022-11-23T00:58:28.752Z,5.59
2022-11-23T00:59:30.748Z,5.54
2022-11-23T01:00:32.549Z,5.48
2022-11-23T01:01:37.111Z,5.42
2022-11-23T01:02:38.921Z,5.38
2022-11-23T01:03:43.702Z,5.34
2022-11-23T01:04:45.287Z,5.32
2022-11-23T01:05:46.860Z,5.36
2022-11-23T01:06:48.520Z,5.39
2022-11-23T01:07:50.151Z,5.51
2022-11-23T01:08:57.667Z,5.51
2022-11-23T01:09:59.328Z,5.54
2022-11-23T01:11:03.127Z,5.53
2022-11-23T01:12:04.988Z,5.50
2022-11-23T01:13:06.539Z,5.49
2022-11-23T01:14:08.199Z,5.58
2022-11-23T01:15:09.996Z,5.67
2022-11-23T01:16:35.153Z,5.67
2022-11-23T01:17:36.718Z,5.68
2022-11-23T01:18:38.309Z,5.78
2022-11-23T01:19:39.911Z,5.86
2022-11-23T01:20:41.553Z,5.87
2022-11-23T01:21:44.469Z,5.82
2022-11-23T01:22:45.995Z,5.80
2022-11-23T01:23:47.780Z,5.75
2022-11-23T01:24:49.610Z,5.72
2022-11-23T01:25:55.615Z,5.67
2022-11-23T01:26:58.481Z,5.63
2022-11-23T01:28:00.073Z,5.58
2022-11-23T01:29:01.750Z,5.54
2022-11-23T01:30:03.953Z,5.49
2022-11-23T01:31:13.519Z,5.45
2022-11-23T01:32:15.031Z,5.42
2022-11-23T01:33:16.580Z,5.40
2022-11-23T01:34:18.563Z,5.36
2022-11-23T01:35:20.143Z,5.34
2022-11-23T01:36:25.446Z,5.25
2022-11-23T01:37:27.089Z,5.25
2022-11-23T01:38:28.675Z,5.21
2022-11-23T01:39:30.549Z,5.20
2022-11-23T01:40:41.020Z,5.18
2022-11-23T01:41:44.499Z,5.19
2022-11-23T01:42:58.586Z,5.25
2022-11-23T01:44:01.011Z,5.24
2022-11-23T01:45:34.810Z,5.25
2022-11-23T01:46:36.340Z,5.23
2022-11-23T01:47:37.915Z,5.20
2022-11-23T01:48:47.414Z,5.18
2022-11-23T01:49:52.742Z,5.24
2022-11-23T01:50:57.963Z,5.27
2022-11-23T01:52:09.823Z,5.25
2022-11-23T01:53:11.473Z,5.23
2022-11-23T01:54:26.861Z,5.21
2022-11-23T01:55:28.504Z,5.19
2022-11-23T01:56:37.800Z,5.18
2022-11-23T01:57:42.035Z,5.13
2022-11-23T01:58:50.801Z,5.13
2022-11-23T01:59:54.898Z,5.11
2022-11-23T02:00:57.906Z,5.09
2022-11-23T02:02:00.717Z,5.16
2022-11-23T02:03:05.366Z,5.16
2022-11-23T02:04:11.660Z,5.20
2022-11-23T02:05:17.013Z,5.24
2022-11-23T02:06:20.500Z,5.35
2022-11-23T02:07:24.324Z,5.38
2022-11-23T02:08:27.694Z,5.48
2022-11-23T02:09:32.473Z,5.55
2022-11-23T02:10:35.659Z,5.63
2022-11-23T02:11:37.238Z,5.65
2022-11-23T02:12:38.894Z,5.75
2022-11-23T02:13:43.687Z,5.83
2022-11-23T02:14:45.991Z,5.91
2022-11-23T02:15:47.576Z,5.97
2022-11-23T02:16:49.219Z,6.03
2022-11-23T02:17:51.488Z,6.06
2022-11-23T02:18:54.883Z,6.10
2022-11-23T02:20:08.516Z,6.17
2022-11-23T02:21:10.170Z,6.20
2022-11-23T02:22:24.020Z,6.21
2022-11-23T02:23:42.756Z,6.26
2022-11-23T02:24:52.482Z,6.29
2022-11-23T02:26:23.225Z,6.34
2022-11-23T02:27:26.867Z,6.33
2022-11-23T02:28:39.897Z,6.44
2022-11-23T02:29:42.234Z,6.47
2022-11-23T02:30:47.232Z,6.51
2022-11-23T02:31:48.905Z,6.51
2022-11-23T02:32:50.447Z,6.51
2022-11-23T02:33:51.962Z,6.50
2022-11-23T02:34:53.635Z,6.49
2022-11-23T02:35:59.027Z,6.47
2022-11-23T02:37:01.191Z,6.43
2022-11-23T02:38:06.597Z,6.40
2022-11-23T02:39:11.068Z,6.38
2022-11-23T02:40:32.374Z,6.36
2022-11-23T02:41:51.317Z,6.39
2022-11-23T02:42:52.842Z,6.41
2022-11-23T02:43:56.873Z,6.41
2022-11-23T02:45:35.855Z,6.41
2022-11-23T02:46:37.858Z,6.45
2022-11-23T02:47:39.474Z,6.45
2022-11-23T02:48:41.143Z,6.48
2022-11-23T02:49:46.268Z,6.52
2022-11-23T02:50:48.007Z,6.55
2022-11-23T02:51:49.681Z,6.58
2022-11-23T02:52:51.286Z,6.56
2022-11-23T02:53:52.906Z,6.53
2022-11-23T02:54:54.565Z,6.48
2022-11-23T02:55:56.080Z,6.43
2022-11-23T02:56:57.691Z,6.42
2022-11-23T02:57:59.276Z,6.41
2022-11-23T02:59:00.932Z,6.38
2022-11-23T03:00:02.567Z,6.42
2022-11-23T03:01:04.366Z,6.40
2022-11-23T03:02:06.718Z,6.39
2022-11-23T03:03:08.359Z,6.37
2022-11-23T03:04:10.629Z,6.36
2022-11-23T03:05:12.222Z,6.38
2022-11-23T03:06:14.022Z,6.34
2022-11-23T03:07:15.746Z,6.28
2022-11-23T03:08:17.336Z,6.28
2022-11-23T03:09:18.926Z,6.20
2022-11-23T03:10:21.887Z,6.23
2022-11-23T03:11:23.589Z,6.21
2022-11-23T03:12:25.600Z,6.22
2022-11-23T03:13:27.135Z,6.20
2022-11-23T03:14:28.721Z,6.21
2022-11-23T03:15:31.804Z,6.23
2022-11-23T03:16:36.209Z,6.33
2022-11-23T03:17:37.840Z,6.43
2022-11-23T03:18:39.552Z,6.48
2022-11-23T03:19:41.265Z,6.52
2022-11-23T03:20:42.895Z,6.55
2022-11-23T03:21:44.464Z,6.51
2022-11-23T03:22:46.368Z,6.59
2022-11-23T03:23:48.121Z,6.61
2022-11-23T03:24:49.766Z,6.63
2022-11-23T03:25:55.970Z,6.66
2022-11-23T03:26:57.523Z,6.65
2022-11-23T03:27:59.103Z,6.64
2022-11-23T03:29:00.685Z,6.71
2022-11-23T03:30:02.305Z,6.74
2022-11-23T03:31:04.122Z,6.75
2022-11-23T03:32:05.959Z,6.76
2022-11-23T03:33:07.577Z,6.72
2022-11-23T03:34:10.193Z,6.72
2022-11-23T03:35:11.785Z,6.69
2022-11-23T03:36:13.422Z,6.67
2022-11-23T03:37:15.143Z,6.69
2022-11-23T03:38:16.787Z,6.69
2022-11-23T03:39:18.523Z,6.64
2022-11-23T03:40:20.205Z,6.62
2022-11-23T03:41:21.905Z,6.62
2022-11-23T03:42:23.512Z,6.62
2022-11-23T03:43:25.361Z,6.61
2022-11-23T03:44:26.988Z,6.58
2022-11-23T03:45:28.506Z,6.59
2022-11-23T03:46:30.695Z,6.57
2022-11-23T03:47:32.288Z,6.56
2022-11-23T03:48:33.902Z,6.56
2022-11-23T03:49:35.490Z,6.51
2022-11-23T03:50:37.132Z,6.46
2022-11-23T03:51:38.705Z,6.45
2022-11-23T03:52:40.469Z,6.43
2022-11-23T03:53:42.095Z,6.39
2022-11-23T03:54:43.789Z,6.37
2022-11-23T03:55:48.465Z,6.34
2022-11-23T03:56:50.016Z,6.33
2022-11-23T03:57:53.766Z,6.31
2022-11-23T03:58:55.408Z,6.28
2022-11-23T03:59:56.993Z,6.27
2022-11-23T04:00:58.576Z,6.26
2022-11-23T04:02:00.205Z,6.25
2022-11-23T04:03:01.858Z,6.22
2022-11-23T04:04:03.549Z,6.19
2022-11-23T04:05:05.529Z,6.19
2022-11-23T04:06:07.163Z,6.25
2022-11-23T04:07:09.073Z,6.23
2022-11-23T04:08:10.736Z,6.17
2022-11-23T04:09:13.406Z,6.19
2022-11-23T04:10:19.653Z,6.16
2022-11-23T04:11:21.242Z,6.12
2022-11-23T04:12:22.935Z,6.11
2022-11-23T04:13:24.727Z,6.04
2022-11-23T04:14:26.348Z,6.01
2022-11-23T04:15:28.106Z,5.97
2022-11-23T04:16:29.719Z,5.91
2022-11-23T04:17:31.269Z,5.86
2022-11-23T04:18:33.579Z,5.79
2022-11-23T04:19:35.250Z,5.75
2022-11-23T04:20:37.017Z,5.74
2022-11-23T04:21:38.616Z,5.70
2022-11-23T04:22:40.586Z,5.67
2022-11-23T04:23:42.154Z,5.64
2022-11-23T04:24:43.707Z,5.70
2022-11-23T04:25:46.155Z,5.75
2022-11-23T04:26:48.062Z,5.76
2022-11-23T04:27:49.684Z,5.81
2022-11-23T04:28:51.476Z,5.87
2022-11-23T04:29:53.053Z,5.88
2022-11-23T04:30:54.728Z,5.94
2022-11-23T04:31:56.340Z,5.99
2022-11-23T04:32:57.989Z,6.16
2022-11-23T04:33:59.659Z,6.29
2022-11-23T04:35:01.547Z,6.38
2022-11-23T04:36:03.469Z,6.34
2022-11-23T04:37:08.937Z,6.36
2022-11-23T04:38:13.729Z,6.38
2022-11-23T04:39:15.305Z,6.38
2022-11-23T04:40:17.084Z,6.45
2022-11-23T04:41:18.827Z,6.50
2022-11-23T04:42:20.424Z,6.39
2022-11-23T04:43:22.107Z,6.57
2022-11-23T04:44:23.704Z,6.58
2022-11-23T04:45:25.619Z,6.58
2022-11-23T04:46:27.291Z,6.56
2022-11-23T04:47:28.935Z,6.56
2022-11-23T04:48:31.939Z,6.57
2022-11-23T04:49:33.728Z,6.58
2022-11-23T04:50:40.413Z,6.59
2022-11-23T04:51:42.427Z,6.55
2022-11-23T04:52:43.946Z,6.56
2022-11-23T04:53:45.624Z,6.56
2022-11-23T04:54:47.313Z,6.58
2022-11-23T04:55:48.974Z,6.55
2022-11-23T04:56:50.598Z,6.56
2022-11-23T04:57:52.147Z,6.54
2022-11-23T04:58:53.881Z,6.59
2022-11-23T04:59:55.555Z,6.58
2022-11-23T05:00:58.438Z,6.55
2022-11-23T05:02:00.159Z,6.51
2022-11-23T05:03:02.066Z,6.50
2022-11-23T05:04:04.439Z,6.48
2022-11-23T05:05:06.338Z,6.45
2022-11-23T05:06:09.665Z,6.41
2022-11-23T05:07:11.331Z,6.44
2022-11-23T05:08:12.936Z,6.41
2022-11-23T05:09:14.613Z,6.38
2022-11-23T05:10:16.280Z,6.35
2022-11-23T05:11:18.003Z,6.24
2022-11-23T05:12:19.655Z,6.28
2022-11-23T05:13:21.381Z,6.23
2022-11-23T05:14:22.997Z,6.21
2022-11-23T05:15:24.593Z,6.23
2022-11-23T05:16:26.150Z,6.24
2022-11-23T05:17:27.723Z,6.20
2022-11-23T05:18:29.400Z,6.21
2022-11-23T05:19:31.320Z,6.33
2022-11-23T05:20:34.070Z,6.33
2022-11-23T05:21:35.782Z,6.24
2022-11-23T05:22:37.429Z,6.21
2022-11-23T05:23:39.061Z,6.16
2022-11-23T05:24:40.832Z,6.06
2022-11-23T05:25:42.418Z,5.92
2022-11-23T05:26:44.025Z,6.08
2022-11-23T05:27:45.653Z,6.14
2022-11-23T05:28:47.250Z,6.14
2022-11-23T05:29:48.829Z,6.11
2022-11-23T05:30:50.410Z,6.03
2022-11-23T05:31:51.948Z,6.16
2022-11-23T05:32:53.530Z,6.16
2022-11-23T05:33:55.099Z,6.13
2022-11-23T05:34:56.693Z,6.13
2022-11-23T05:35:58.348Z,6.06
2022-11-23T05:36:59.911Z,6.07
2022-11-23T05:38:02.039Z,6.01
2022-11-23T05:39:03.830Z,5.99
2022-11-23T05:40:06.239Z,5.98
2022-11-23T05:41:08.088Z,5.97
2022-11-23T05:42:10.092Z,5.92
2022-11-23T05:43:11.713Z,5.86
2022-11-23T05:44:13.400Z,5.84
2022-11-23T05:45:15.086Z,5.77
2022-11-23T05:46:16.680Z,5.81
2022-11-23T05:47:18.294Z,5.77
2022-11-23T05:48:19.888Z,5.81
2022-11-23T05:49:21.755Z,5.79
2022-11-23T05:50:25.938Z,5.81
2022-11-23T05:51:27.792Z,5.84
2022-11-23T05:52:29.368Z,5.80
2022-11-23T05:53:31.000Z,5.81
2022-11-23T05:54:32.598Z,5.87
2022-11-23T05:55:34.241Z,5.89
2022-11-23T05:56:38.920Z,5.93
2022-11-23T05:57:42.365Z,5.95
2022-11-23T05:58:44.043Z,5.94
2022-11-23T05:59:46.086Z,5.92
2022-11-23T06:00:47.627Z,5.91
2022-11-23T06:01:49.335Z,5.91
2022-11-23T06:02:51.024Z,5.86
2022-11-23T06:03:52.798Z,5.86
2022-11-23T06:04:54.398Z,5.87
2022-11-23T06:05:56.068Z,5.83
2022-11-23T06:07:00.915Z,5.75
2022-11-23T06:08:02.534Z,5.79
2022-11-23T06:09:04.435Z,5.81
2022-11-23T06:10:07.238Z,5.80
2022-11-23T06:11:08.969Z,5.86
2022-11-23T06:12:10.662Z,5.87
2022-11-23T06:13:12.231Z,5.85
2022-11-23T06:14:14.670Z,5.85
2022-11-23T06:15:16.675Z,5.85
2022-11-23T06:16:18.263Z,5.81
2022-11-23T06:17:20.090Z,5.73
2022-11-23T06:18:21.818Z,5.63
2022-11-23T06:19:23.451Z,5.66
2022-11-23T06:20:25.021Z,5.64
2022-11-23T06:21:26.654Z,5.62
2022-11-23T06:22:28.260Z,5.60
2022-11-23T06:23:29.929Z,5.58
2022-11-23T06:24:31.716Z,5.63
2022-11-23T06:25:33.313Z,5.59
2022-11-23T06:26:34.875Z,5.71
2022-11-23T06:27:36.442Z,5.69
2022-11-23T06:28:38.160Z,5.68
2022-11-23T06:29:39.722Z,5.71
2022-11-23T06:30:41.324Z,5.76
2022-11-23T06:31:42.873Z,5.74
2022-11-23T06:32:44.561Z,5.68
2022-11-23T06:33:46.206Z,5.63
2022-11-23T06:34:47.955Z,5.63
2022-11-23T06:35:57.713Z,5.69
2022-11-23T06:36:59.383Z,5.63
2022-11-23T06:38:00.873Z,5.64
2022-11-23T06:39:02.762Z,5.62
2022-11-23T06:40:04.687Z,5.65
2022-11-23T06:41:06.340Z,5.71
2022-11-23T06:42:36.745Z,5.71
2022-11-23T06:43:29.863Z,5.68
2022-11-23T06:44:31.495Z,5.67
2022-11-23T06:45:33.132Z,5.65
2022-11-23T06:46:34.720Z,5.64
2022-11-23T06:47:36.406Z,5.66
2022-11-23T06:48:38.109Z,5.69
2022-11-23T06:49:39.768Z,5.71
2022-11-23T06:50:41.478Z,5.65
2022-11-23T06:51:43.152Z,5.63
2022-11-23T06:52:44.726Z,5.58
2022-11-23T06:53:46.416Z,5.58
2022-11-23T06:54:48.356Z,5.55
2022-11-23T06:55:50.003Z,5.55
2022-11-23T06:56:51.570Z,5.58
2022-11-23T06:57:53.497Z,5.63
2022-11-23T06:58:55.593Z,5.49
2022-11-23T06:59:57.227Z,5.64
2022-11-23T07:01:03.386Z,5.64
2022-11-23T07:02:06.321Z,5.64
2022-11-23T07:03:18.839Z,5.63
2022-11-23T07:04:20.529Z,5.66
2022-11-23T07:05:23.208Z,5.68
2022-11-23T07:06:25.538Z,5.67
2022-11-23T07:07:27.502Z,5.66
2022-11-23T07:08:29.150Z,5.63
2022-11-23T07:09:31.028Z,5.60
2022-11-23T07:10:33.149Z,5.61
2022-11-23T07:11:35.025Z,5.56
2022-11-23T07:12:36.947Z,5.59
2022-11-23T07:13:39.288Z,5.59
2022-11-23T07:14:40.996Z,5.57
2022-11-23T07:15:43.060Z,5.51
2022-11-23T07:16:44.676Z,5.65
2022-11-23T07:17:46.314Z,5.62
2022-11-23T07:18:48.049Z,5.60
2022-11-23T07:19:49.616Z,5.56
2022-11-23T07:20:51.340Z,5.62
2022-11-23T07:21:53.077Z,5.59
2022-11-23T07:23:06.307Z,5.55
2022-11-23T07:24:07.991Z,5.60
2022-11-23T07:25:09.770Z,5.58
2022-11-23T07:26:11.540Z,5.60
2022-11-23T07:27:13.180Z,5.61
2022-11-23T07:28:14.794Z,5.64
2022-11-23T07:29:16.374Z,5.62
2022-11-23T07:30:18.102Z,5.61
2022-11-23T07:31:19.724Z,5.60
2022-11-23T07:32:21.446Z,5.60
2022-11-23T07:33:23.090Z,5.58
2022-11-23T07:34:24.628Z,5.59
2022-11-23T07:35:26.214Z,5.71
2022-11-23T07:36:27.872Z,5.76
2022-11-23T07:37:29.505Z,5.81
2022-11-23T07:38:31.342Z,5.87
2022-11-23T07:39:55.751Z,5.98
2022-11-23T07:40:54.494Z,6.14
2022-11-23T07:42:24.584Z,6.28
2022-11-23T07:43:18.490Z,6.36
2022-11-23T07:44:20.142Z,6.38
2022-11-23T07:45:23.050Z,6.33
2022-11-23T07:46:24.605Z,6.35
2022-11-23T07:47:26.165Z,6.33
2022-11-23T07:48:31.876Z,6.28
2022-11-23T07:49:36.452Z,6.26
2022-11-23T07:50:39.257Z,6.23
2022-11-23T07:51:40.937Z,6.32
2022-11-23T07:52:42.618Z,6.53
2022-11-23T07:53:44.180Z,7.01
2022-11-23T07:54:46.151Z,7.52
2022-11-23T07:55:47.722Z,7.83
2022-11-23T07:56:49.219Z,8.31
2022-11-23T07:57:54.931Z,8.75
2022-11-23T07:58:56.772Z,9.00
2022-11-23T07:59:58.546Z,9.41
2022-11-23T08:01:00.474Z,9.90
2022-11-23T08:02:02.431Z,10.21
2022-11-23T08:03:26.578Z,10.58
2022-11-23T08:04:27.317Z,10.74
2022-11-23T08:05:34.005Z,10.53
2022-11-23T08:06:35.672Z,10.61
2022-11-23T08:07:37.505Z,10.63
2022-11-23T08:08:39.238Z,10.90
2022-11-23T08:09:41.137Z,11.23
2022-11-23T08:10:46.279Z,11.35
2022-11-23T08:11:51.654Z,11.15
2022-11-23T08:12:53.237Z,10.92
2022-11-23T08:13:54.993Z,11.01
2022-11-23T08:14:56.692Z,10.83
2022-11-23T08:15:58.344Z,11.03
2022-11-23T08:16:59.974Z,10.87
2022-11-23T08:18:03.748Z,10.69
2022-11-23T08:19:05.709Z,10.93
2022-11-23T08:20:08.225Z,11.03
2022-11-23T08:21:09.824Z,10.92
2022-11-23T08:22:15.516Z,11.09
2022-11-23T08:23:17.647Z,11.17
2022-11-23T08:24:19.340Z,11.17
2022-11-23T08:25:20.932Z,11.17
2022-11-23T08:26:22.544Z,10.81
2022-11-23T08:27:24.386Z,10.48
2022-11-23T08:28:26.290Z,10.47
2022-11-23T08:29:28.176Z,10.82
2022-11-23T08:30:32.380Z,11.11
2022-11-23T08:31:34.034Z,11.18
2022-11-23T08:32:35.617Z,11.00
2022-11-23T08:33:38.076Z,10.77
2022-11-23T08:34:39.708Z,10.99
2022-11-23T08:35:42.753Z,11.16
2022-11-23T08:36:45.164Z,11.56
2022-11-23T08:37:46.828Z,11.89
2022-11-23T08:38:51.426Z,11.57
2022-11-23T08:39:53.079Z,11.33
2022-11-23T08:40:58.999Z,11.12
2022-11-23T08:42:00.709Z,10.48
2022-11-23T08:43:03.554Z,10.71
2022-11-23T08:44:05.453Z,10.88
2022-11-23T08:45:08.004Z,10.84
2022-11-23T08:46:11.408Z,10.68
2022-11-23T08:47:13.285Z,10.58
2022-11-23T08:48:14.907Z,10.21
2022-11-23T08:49:16.528Z,10.14
2022-11-23T08:50:18.248Z,10.09
2022-11-23T08:51:22.765Z,9.98
2022-11-23T08:52:24.384Z,10.00
2022-11-23T08:53:26.495Z,10.00
2022-11-23T08:54:28.084Z,9.98
2022-11-23T08:55:30.095Z,10.10
2022-11-23T08:56:31.792Z,10.40
2022-11-23T08:57:33.506Z,10.80
2022-11-23T08:58:36.779Z,11.26
2022-11-23T08:59:38.382Z,11.61
2022-11-23T09:00:39.985Z,11.74
2022-11-23T09:01:41.784Z,11.93
2022-11-23T09:02:43.479Z,12.00
2022-11-23T09:03:45.391Z,12.33
2022-11-23T09:04:48.092Z,12.46
2022-11-23T09:05:51.157Z,12.82
2022-11-23T09:06:52.763Z,13.49
2022-11-23T09:07:55.686Z,13.87
2022-11-23T09:08:57.521Z,14.25
2022-11-23T09:09:59.224Z,14.37
2022-11-23T09:11:02.259Z,14.75
2022-11-23T09:12:04.232Z,15.16
2022-11-23T09:13:05.765Z,15.50
2022-11-23T09:14:07.290Z,15.98
2022-11-23T09:15:09.787Z,15.86
2022-11-23T09:16:11.408Z,16.10
2022-11-23T09:17:13.081Z,16.28
2022-11-23T09:18:15.123Z,15.91
2022-11-23T09:19:16.803Z,15.81
2022-11-23T09:20:18.987Z,15.04
2022-11-23T09:21:21.304Z,15.61
2022-11-23T09:22:22.978Z,16.07
2022-11-23T09:23:26.987Z,16.06
2022-11-23T09:24:28.656Z,16.30
2022-11-23T09:25:30.372Z,15.94
2022-11-23T09:26:33.853Z,16.09
2022-11-23T09:27:35.468Z,16.05
2022-11-23T09:28:41.572Z,16.02
2022-11-23T09:29:46.017Z,16.05
2022-11-23T09:30:48.182Z,16.12
2022-11-23T09:31:49.927Z,16.22
2022-11-23T09:32:51.657Z,16.34
2022-11-23T09:33:53.974Z,16.92
2022-11-23T09:34:55.593Z,16.24
2022-11-23T09:35:59.222Z,16.70
2022-11-23T09:37:00.868Z,16.98
2022-11-23T09:38:02.463Z,17.56
2022-11-23T09:39:04.369Z,17.60
2022-11-23T09:40:07.831Z,17.61
2022-11-23T09:41:15.485Z,17.41
2022-11-23T09:42:21.844Z,17.71
2022-11-23T09:43:46.293Z,17.34
2022-11-23T09:45:09.355Z,17.92
2022-11-23T09:46:25.769Z,17.71
2022-11-23T09:47:36.313Z,18.16
2022-11-23T09:48:51.986Z,18.49
2022-11-23T09:50:09.157Z,18.54
2022-11-23T09:51:17.047Z,18.93
2022-11-23T09:52:22.467Z,19.25
2022-11-23T09:53:33.133Z,18.97
2022-11-23T09:54:39.934Z,18.69
2022-11-23T09:55:44.583Z,18.20
2022-11-23T09:56:49.475Z,18.06
2022-11-23T09:58:03.497Z,18.15
2022-11-23T09:59:35.924Z,18.47
2022-11-23T10:00:43.587Z,18.42
2022-11-23T10:01:45.318Z,19.10
2022-11-23T10:02:47.768Z,18.92
2022-11-23T10:03:49.709Z,18.89
2022-11-23T10:04:53.676Z,18.80
2022-11-23T10:05:58.949Z,18.71
2022-11-23T10:07:25.165Z,18.67
2022-11-23T10:08:41.546Z,18.83
2022-11-23T10:10:01.223Z,18.49
2022-11-23T10:11:40.838Z,18.59
2022-11-23T10:12:54.431Z,18.70
2022-11-23T10:14:05.697Z,18.34
2022-11-23T10:15:32.250Z,18.47
2022-11-23T10:16:54.784Z,18.46
2022-11-23T10:18:02.385Z,18.48
2022-11-23T10:19:38.185Z,18.24
2022-11-23T10:21:01.394Z,18.37
2022-11-23T10:22:14.737Z,19.12
2022-11-23T10:23:54.889Z,20.18
2022-11-23T10:24:56.459Z,20.26
2022-11-23T10:25:58.116Z,19.82
2022-11-23T10:26:59.969Z,19.45
2022-11-23T10:28:12.115Z,20.17
2022-11-23T10:29:37.960Z,19.55
2022-11-23T10:30:40.208Z,19.57
2022-11-23T10:31:47.084Z,19.56
2022-11-23T10:33:01.298Z,20.01
2022-11-23T10:34:12.789Z,19.66
2022-11-23T10:35:17.818Z,19.72
2022-11-23T10:36:19.433Z,19.51
2022-11-23T10:37:21.133Z,19.03
2022-11-23T10:38:26.626Z,18.98
2022-11-23T10:39:28.531Z,18.64
2022-11-23T10:40:30.332Z,17.96
2022-11-23T10:41:32.107Z,17.15
2022-11-23T10:42:42.307Z,17.61
2022-11-23T10:44:18.718Z,18.04
2022-11-23T10:45:26.099Z,18.93
2022-11-23T10:46:39.912Z,19.27
2022-11-23T10:47:50.387Z,19.26
2022-11-23T10:48:52.912Z,19.68
2022-11-23T10:49:58.757Z,18.65
2022-11-23T10:51:16.980Z,18.58
2022-11-23T10:52:33.438Z,18.53
2022-11-23T10:53:35.753Z,18.48
2022-11-23T10:54:49.446Z,18.54
2022-11-23T10:55:55.014Z,18.26
2022-11-23T10:56:58.759Z,18.56
2022-11-23T10:58:01.254Z,18.47
2022-11-23T10:59:02.959Z,18.54
2022-11-23T11:00:11.021Z,18.84
2022-11-23T11:01:24.208Z,18.55
2022-11-23T11:02:26.362Z,18.75
2022-11-23T11:03:33.219Z,18.23
2022-11-23T11:04:35.044Z,17.63
2022-11-23T11:06:08.545Z,17.39
2022-11-23T11:07:20.693Z,17.58
2022-11-23T11:08:35.366Z,18.24
2022-11-23T11:09:36.947Z,18.18
2022-11-23T11:10:41.806Z,18.56
2022-11-23T11:11:47.955Z,19.00
2022-11-23T11:12:51.933Z,18.28
2022-11-23T11:14:15.347Z,18.41
2022-11-23T11:15:17.027Z,17.49
2022-11-23T11:16:27.442Z,17.92
2022-11-23T11:17:32.755Z,18.44
2022-11-23T11:18:36.960Z,18.65
2022-11-23T11:19:39.541Z,19.22
2022-11-23T11:20:45.313Z,18.08
2022-11-23T11:21:46.992Z,17.81
2022-11-23T11:22:49.172Z,18.18
2022-11-23T11:24:19.649Z,19.09
2022-11-23T11:25:34.593Z,19.57
2022-11-23T11:26:37.635Z,20.06
2022-11-23T11:27:50.782Z,19.57
2022-11-23T11:29:00.261Z,18.43
2022-11-23T11:30:07.425Z,18.64
2022-11-23T11:31:31.982Z,19.34
2022-11-23T11:32:47.844Z,19.27
2022-11-23T11:34:01.733Z,18.91
2022-11-23T11:35:27.632Z,19.29
2022-11-23T11:36:36.135Z,19.64
2022-11-23T11:37:44.843Z,19.30
2022-11-23T11:39:08.123Z,19.44
2022-11-23T11:40:24.024Z,19.24
2022-11-23T11:41:28.198Z,19.21
2022-11-23T11:42:44.989Z,18.78
2022-11-23T11:43:55.461Z,19.48
2022-11-23T11:45:00.456Z,18.62
2022-11-23T11:46:31.427Z,19.13
2022-11-23T11:47:45.249Z,19.22
2022-11-23T11:48:59.128Z,19.74
2022-11-23T11:50:08.265Z,19.53
2022-11-23T11:51:17.657Z,19.21
2022-11-23T11:52:24.659Z,19.75
2022-11-23T11:53:55.646Z,18.85
2022-11-23T11:55:15.480Z,19.25
2022-11-23T11:56:31.662Z,19.45
2022-11-23T11:57:39.700Z,19.05
2022-11-23T11:58:49.763Z,19.78
2022-11-23T11:59:58.438Z,19.24
2022-11-23T12:01:09.023Z,18.45
2022-11-23T12:02:23.763Z,17.99
2022-11-23T12:03:37.484Z,17.86
2022-11-23T12:04:50.432Z,17.10
2022-11-23T12:05:54.617Z,17.74
2022-11-23T12:07:14.283Z,17.84
2022-11-23T12:08:24.705Z,17.89
2022-11-23T12:09:33.062Z,18.01
2022-11-23T12:10:44.214Z,18.15
2022-11-23T12:11:46.075Z,18.52
2022-11-23T12:12:48.353Z,18.57
2022-11-23T12:13:50.239Z,18.07
2022-11-23T12:14:52.156Z,18.13
2022-11-23T12:16:10.644Z,18.65
2022-11-23T12:17:33.163Z,17.71
2022-11-23T12:18:35.193Z,17.36
2022-11-23T12:19:45.231Z,17.31
2022-11-23T12:21:08.306Z,17.27
2022-11-23T12:22:21.848Z,17.52
2022-11-23T12:23:35.740Z,17.39
2022-11-23T12:24:59.221Z,18.30
2022-11-23T12:26:03.544Z,18.58
2022-11-23T12:27:48.046Z,18.32
2022-11-23T12:29:26.778Z,18.07
2022-11-23T12:30:39.794Z,17.91
2022-11-23T12:31:53.020Z,17.47
2022-11-23T12:33:24.204Z,17.62
2022-11-23T12:34:52.432Z,17.14
2022-11-23T12:36:28.411Z,17.16
2022-11-23T12:37:44.789Z,17.11
2022-11-23T12:38:55.899Z,17.51
2022-11-23T12:40:14.329Z,17.64
2022-11-23T12:41:24.708Z,17.63
2022-11-23T12:42:35.245Z,17.46
2022-11-23T12:43:50.379Z,17.54
2022-11-23T12:45:10.512Z,17.82
2022-11-23T12:46:41.330Z,18.39
2022-11-23T12:48:28.601Z,17.80
2022-11-23T12:49:39.160Z,17.77
2022-11-23T12:50:53.324Z,18.40
2022-11-23T12:52:22.715Z,18.88
2022-11-23T12:53:50.493Z,17.24
2022-11-23T12:55:02.970Z,17.18
2022-11-23T12:56:11.869Z,17.26
2022-11-23T12:57:21.892Z,17.41
2022-11-23T12:58:27.725Z,17.05
2022-11-23T12:59:40.929Z,17.23
2022-11-23T13:00:49.097Z,17.09
2022-11-23T13:02:00.890Z,16.87
2022-11-23T13:03:21.443Z,17.32
2022-11-23T13:04:41.680Z,17.22
2022-11-23T13:06:01.910Z,17.54
2022-11-23T13:08:45.433Z,16.94
2022-11-23T13:10:14.968Z,16.72
2022-11-23T13:11:42.072Z,17.22
2022-11-23T13:13:07.814Z,17.40
2022-11-23T13:14:24.174Z,17.12
2022-11-23T13:15:38.082Z,16.66
2022-11-23T13:16:55.649Z,16.73
2022-11-23T13:18:05.907Z,16.66
2022-11-23T13:19:24.831Z,17.26
2022-11-23T13:20:39.836Z,16.63
2022-11-23T13:21:46.953Z,16.55
2022-11-23T13:22:50.458Z,16.35
2022-11-23T13:23:52.260Z,16.60
2022-11-23T13:25:01.790Z,16.19
2022-11-23T13:26:23.691Z,16.34
2022-11-23T13:27:31.542Z,16.50
2022-11-23T13:28:33.562Z,16.15
2022-11-23T13:29:51.400Z,16.72
2022-11-23T13:31:24.023Z,16.25
2022-11-23T13:32:46.206Z,16.46
2022-11-23T13:33:50.521Z,16.54
2022-11-23T13:34:52.159Z,16.54
2022-11-23T13:35:56.376Z,16.33
2022-11-23T13:37:17.343Z,16.26
2022-11-23T13:38:24.548Z,16.48
2022-11-23T13:39:45.279Z,15.89
2022-11-23T13:40:46.999Z,15.49
2022-11-23T13:41:54.866Z,15.31
2022-11-23T13:43:14.139Z,15.90
2022-11-23T13:44:18.793Z,16.26
2022-11-23T13:45:20.348Z,16.10
2022-11-23T13:46:24.910Z,15.73
2022-11-23T13:47:26.935Z,15.58
2022-11-23T13:48:55.552Z,15.71
2022-11-23T13:49:53.124Z,15.97
2022-11-23T13:50:56.246Z,15.80
2022-11-23T13:52:06.853Z,14.51
2022-11-23T13:53:32.025Z,14.52
2022-11-23T13:54:34.214Z,14.42
2022-11-23T13:55:38.678Z,14.16
2022-11-23T13:56:43.000Z,14.23
2022-11-23T13:57:48.457Z,13.81
2022-11-23T13:58:52.763Z,13.79
2022-11-23T13:59:54.469Z,13.78
2022-11-23T14:00:59.656Z,13.72
2022-11-23T14:02:07.536Z,13.08
2022-11-23T14:03:48.539Z,12.73
2022-11-23T14:04:50.457Z,12.11
2022-11-23T14:06:00.067Z,11.96
2022-11-23T14:07:17.086Z,11.85
2022-11-23T14:08:20.460Z,11.89
2022-11-23T14:09:33.439Z,11.79
2022-11-23T14:10:35.342Z,11.67
2022-11-23T14:11:50.475Z,11.57
2022-11-23T14:13:14.562Z,11.59
2022-11-23T14:14:21.547Z,11.55
2022-11-23T14:15:27.067Z,11.47
2022-11-23T14:17:07.956Z,11.28
2022-11-23T14:18:38.781Z,11.13
2022-11-23T14:20:01.647Z,11.10
2022-11-23T14:21:27.452Z,11.05
2022-11-23T14:23:06.642Z,10.93
2022-11-23T14:24:34.335Z,10.90
2022-11-23T14:26:08.480Z,10.84
2022-11-23T14:29:09.422Z,10.80